createdAt,value
2023-01-12T05:15:39.130Z,6.97
2023-01-12T05:18:05.690Z,6.84
2023-01-12T05:20:32.251Z,6.78
2023-01-12T05:22:58.781Z,6.55
2023-01-12T05:25:26.789Z,6.89
2023-01-12T05:27:57.853Z,6.43
2023-01-12T05:30:25.569Z,6.64
2023-01-12T05:32:52.494Z,6.51
2023-01-12T05:35:19.049Z,6.54
2023-01-12T05:37:45.522Z,6.95
2023-01-12T05:40:12.659Z,6.37
2023-01-12T05:42:57.858Z,7.31
2023-01-12T05:45:24.443Z,6.82
2023-01-12T05:47:59.177Z,6.78
2023-01-12T05:50:25.889Z,6.79
2023-01-12T05:53:07.716Z,6.49
2023-01-12T05:55:46.811Z,7.03
2023-01-12T05:58:14.840Z,6.74
2023-01-12T06:00:44.481Z,6.59
2023-01-12T06:03:14.499Z,6.64
2023-01-12T06:05:42.307Z,6.32
2023-01-12T06:08:11.725Z,6.33
2023-01-12T06:10:40.778Z,6.51
2023-01-12T06:13:27.743Z,6.70
2023-01-12T06:15:54.483Z,6.47
2023-01-12T06:18:22.573Z,6.55
2023-01-12T06:20:49.091Z,6.46
2023-01-12T06:23:15.732Z,6.29
2023-01-12T06:25:42.425Z,6.39
2023-01-12T06:28:08.934Z,6.49
2023-01-12T06:30:35.362Z,6.77
2023-01-12T06:33:03.048Z,6.55
2023-01-12T06:35:29.527Z,6.44
2023-01-12T06:37:57.328Z,6.38
2023-01-12T06:40:23.845Z,6.17
2023-01-12T06:42:50.373Z,6.20
2023-01-12T06:45:17.958Z,6.35
2023-01-12T06:47:49.568Z,6.18
2023-01-12T06:50:16.575Z,6.37
2023-01-12T06:52:43.361Z,6.02
2023-01-12T06:55:10.057Z,6.38
2023-01-12T06:57:36.572Z,6.58
2023-01-12T07:00:05.951Z,5.98
2023-01-12T07:02:32.434Z,6.37
2023-01-12T07:04:59.083Z,6.43
2023-01-12T07:07:25.684Z,6.56
2023-01-12T07:09:52.388Z,6.64
2023-01-12T07:12:28.230Z,6.37
2023-01-12T07:14:56.173Z,6.64
2023-01-12T07:17:22.581Z,6.03
2023-01-12T07:19:49.806Z,5.97
2023-01-12T07:22:17.919Z,6.07
2023-01-12T07:24:44.541Z,6.29
2023-01-12T07:27:11.021Z,5.97
2023-01-12T07:29:37.492Z,5.88
2023-01-12T07:32:04.429Z,6.18
2023-01-12T07:34:31.160Z,6.18
2023-01-12T07:36:57.684Z,5.85
2023-01-12T07:39:24.148Z,5.90
2023-01-12T07:42:09.200Z,5.79
2023-01-12T07:44:36.099Z,6.03
2023-01-12T07:47:02.594Z,5.93
2023-01-12T07:49:29.061Z,5.83
2023-01-12T07:51:56.055Z,6.13
2023-01-12T07:54:23.156Z,5.95
2023-01-12T07:56:49.735Z,6.13
2023-01-12T07:59:17.748Z,5.96
2023-01-12T08:01:44.264Z,5.92
2023-01-12T08:04:10.811Z,5.87
2023-01-12T08:06:37.280Z,5.86
2023-01-12T08:09:04.075Z,5.90
2023-01-12T08:11:30.563Z,5.82
2023-01-12T08:13:58.129Z,5.77
2023-01-12T08:16:36.241Z,5.65
2023-01-12T08:19:09.289Z,5.81
2023-01-12T08:21:46.185Z,5.44
2023-01-12T08:24:16.896Z,5.91
2023-01-12T08:26:45.786Z,6.13
2023-01-12T08:29:17.700Z,5.70
2023-01-12T08:31:44.273Z,5.73
2023-01-12T08:34:14.693Z,5.88
2023-01-12T08:36:44.311Z,5.67
2023-01-12T08:39:11.368Z,6.14
2023-01-12T08:41:37.801Z,5.98
2023-01-12T08:44:10.831Z,6.02
2023-01-12T08:46:49.749Z,5.96
2023-01-12T08:49:19.493Z,5.61
2023-01-12T08:51:46.121Z,5.53
2023-01-12T08:54:16.154Z,5.89
2023-01-12T08:56:42.704Z,6.02
2023-01-12T08:59:09.532Z,5.79
2023-01-12T09:01:36.386Z,6.02
2023-01-12T09:04:03.464Z,6.17
2023-01-12T09:06:40.229Z,6.36
2023-01-12T09:09:11.279Z,5.73
2023-01-12T09:11:39.284Z,5.91
2023-01-12T09:14:10.943Z,5.72
2023-01-12T09:16:37.715Z,6.31
2023-01-12T09:19:04.679Z,5.81
2023-01-12T09:21:32.229Z,6.23
2023-01-12T09:24:00.655Z,5.94
2023-01-12T09:26:31.755Z,6.16
2023-01-12T09:28:59.510Z,6.19
2023-01-12T09:31:35.700Z,6.28
2023-01-12T09:34:03.678Z,6.27
2023-01-12T09:36:36.068Z,6.39
2023-01-12T09:39:10.349Z,6.22
2023-01-12T09:42:02.387Z,6.43
2023-01-12T09:45:02.852Z,6.24
2023-01-12T09:47:40.173Z,6.33
2023-01-12T09:50:14.101Z,6.23
2023-01-12T09:52:52.881Z,6.54
2023-01-12T09:55:23.865Z,6.24
2023-01-12T09:58:22.702Z,6.88
2023-01-12T10:00:52.067Z,6.42
2023-01-12T10:03:41.565Z,6.51
2023-01-12T10:06:14.515Z,7.00
2023-01-12T10:08:51.640Z,6.88
2023-01-12T10:11:33.236Z,6.36
2023-01-12T10:14:34.516Z,6.74
2023-01-12T10:17:38.579Z,6.47
2023-01-12T10:20:08.762Z,6.97
2023-01-12T10:22:53.700Z,6.77
2023-01-12T10:25:27.289Z,6.98
2023-01-12T10:28:31.057Z,6.84
2023-01-12T10:31:02.415Z,6.77
2023-01-12T10:33:34.334Z,6.81
2023-01-12T10:36:04.472Z,6.81
2023-01-12T10:38:36.149Z,6.36
2023-01-12T10:41:17.003Z,6.71
2023-01-12T10:43:46.557Z,6.76
2023-01-12T10:46:18.904Z,6.37
2023-01-12T10:49:15.187Z,7.03
2023-01-12T10:52:00.316Z,6.70
2023-01-12T10:54:26.853Z,6.61
2023-01-12T10:56:57.428Z,6.82
2023-01-12T10:59:29.452Z,6.74
2023-01-12T11:02:09.486Z,6.52
2023-01-12T11:04:47.883Z,6.63
2023-01-12T11:07:25.546Z,7.07
2023-01-12T11:09:54.627Z,6.77
2023-01-12T11:12:35.816Z,6.33
2023-01-12T11:15:14.964Z,6.51
2023-01-12T11:18:08.726Z,6.74
2023-01-12T11:20:49.920Z,7.25
2023-01-12T11:23:32.733Z,6.48
2023-01-12T11:26:15.690Z,6.30
2023-01-12T11:28:47.115Z,6.84
2023-01-12T11:31:26.518Z,6.90
2023-01-12T11:34:03.483Z,6.50
2023-01-12T11:36:37.038Z,6.61
2023-01-12T11:39:07.653Z,7.08
2023-01-12T11:42:12.568Z,6.57
2023-01-12T11:44:44.120Z,7.02
2023-01-12T11:47:14.575Z,7.03
2023-01-12T11:49:48.030Z,7.18
2023-01-12T11:52:17.816Z,7.64
2023-01-12T11:54:44.449Z,6.85
2023-01-12T11:57:42.217Z,7.16
2023-01-12T12:00:28.145Z,7.03
2023-01-12T12:02:57.646Z,6.63
2023-01-12T12:05:36.830Z,6.68
2023-01-12T12:08:10.224Z,6.76
2023-01-12T12:10:59.311Z,6.87
2023-01-12T12:13:56.863Z,6.94
2023-01-12T12:16:29.918Z,6.81
2023-01-12T12:19:32.710Z,7.04
2023-01-12T12:22:07.623Z,6.69
2023-01-12T12:25:00.841Z,7.11
2023-01-12T12:27:53.553Z,7.16
2023-01-12T12:30:44.943Z,7.14
2023-01-12T12:33:32.113Z,7.14
2023-01-12T12:36:35.581Z,6.94
2023-01-12T12:39:34.750Z,6.75
2023-01-12T12:42:36.917Z,7.20
2023-01-12T12:45:28.303Z,6.71
2023-01-12T12:48:14.477Z,6.67
2023-01-12T12:51:07.987Z,6.51
2023-01-12T12:53:42.051Z,6.83
2023-01-12T12:56:11.903Z,6.64
2023-01-12T12:58:40.389Z,6.93
2023-01-12T13:01:28.345Z,6.81
2023-01-12T13:03:56.421Z,7.00
2023-01-12T13:06:35.121Z,7.51
2023-01-12T13:09:28.871Z,7.35
2023-01-12T13:11:59.042Z,6.78
2023-01-12T13:14:40.712Z,6.98
2023-01-12T13:17:19.528Z,7.25
2023-01-12T13:19:53.475Z,7.28
2023-01-12T13:22:46.298Z,7.38
2023-01-12T13:25:15.884Z,7.32
2023-01-12T13:27:56.336Z,7.27
2023-01-12T13:30:28.822Z,6.98
2023-01-12T13:33:20.866Z,7.11
2023-01-12T13:35:47.606Z,7.41
2023-01-12T13:38:27.291Z,7.35
2023-01-12T13:41:17.670Z,7.68
2023-01-12T13:44:33.383Z,7.13
2023-01-12T13:47:23.423Z,7.38
2023-01-12T13:50:21.595Z,7.37
2023-01-12T13:52:59.331Z,7.35
2023-01-12T13:55:30.236Z,7.33
2023-01-12T13:58:04.945Z,7.53
2023-01-12T14:00:35.801Z,7.46
2023-01-12T14:03:06.027Z,7.53
2023-01-12T14:05:53.064Z,7.54
2023-01-12T14:08:50.618Z,7.46
2023-01-12T14:11:40.455Z,7.57
2023-01-12T14:14:44.906Z,7.46
2023-01-12T14:17:41.554Z,7.47
2023-01-12T14:20:16.214Z,7.70
2023-01-12T14:22:43.299Z,7.71
2023-01-12T14:25:22.162Z,7.71
2023-01-12T14:28:00.723Z,7.21
2023-01-12T14:30:28.634Z,7.78
2023-01-12T14:32:55.828Z,7.58
2023-01-12T14:36:30.992Z,7.61
2023-01-12T14:38:59.923Z,7.95
2023-01-12T14:41:48.557Z,7.82
2023-01-12T14:44:40.865Z,7.89
2023-01-12T14:47:13.003Z,8.40
2023-01-12T14:49:39.932Z,7.78
2023-01-12T14:52:34.369Z,7.76
2023-01-12T14:55:19.183Z,8.04
2023-01-12T14:57:54.919Z,7.92
2023-01-12T15:00:26.976Z,7.98
2023-01-12T15:02:56.599Z,7.63
2023-01-12T15:05:26.792Z,7.85
2023-01-12T15:08:05.260Z,7.90
2023-01-12T15:10:40.812Z,8.14
2023-01-12T15:32:15.261Z,8.13
2023-01-12T15:35:46.900Z,7.73
2023-01-12T15:38:53.971Z,8.04
2023-01-12T15:41:47.866Z,8.26
2023-01-12T15:44:20.732Z,7.93
2023-01-12T15:46:53.336Z,8.01
2023-01-12T15:49:23.481Z,7.66
2023-01-12T15:51:57.817Z,8.06
2023-01-12T15:54:38.570Z,7.94
2023-01-12T15:57:20.926Z,8.15
2023-01-12T16:00:00.185Z,7.98
2023-01-12T16:02:53.094Z,8.18
2023-01-12T16:05:35.405Z,7.65
2023-01-12T16:08:34.037Z,7.73
2023-01-12T16:11:12.603Z,7.90
2023-01-12T16:13:46.303Z,7.84
2023-01-12T16:16:29.252Z,8.17
2023-01-12T16:19:03.108Z,8.11
2023-01-12T16:21:35.679Z,8.43
2023-01-12T16:24:47.518Z,8.07
2023-01-12T16:27:34.166Z,8.14
2023-01-12T16:30:02.491Z,8.26
2023-01-12T16:32:38.287Z,8.22
2023-01-12T16:35:05.457Z,7.88
2023-01-12T16:37:35.879Z,7.68
2023-01-12T16:40:25.177Z,7.99
2023-01-12T16:43:23.212Z,7.90
2023-01-12T16:46:28.573Z,8.21
2023-01-12T16:49:04.320Z,7.62
2023-01-12T16:51:30.976Z,7.98
2023-01-12T16:54:04.281Z,7.78
2023-01-12T16:56:36.056Z,7.79
2023-01-12T16:59:22.644Z,7.75
2023-01-12T17:01:57.403Z,8.10
2023-01-12T17:04:24.406Z,8.07
2023-01-12T17:06:53.848Z,7.58
2023-01-12T17:09:20.850Z,7.95
2023-01-12T17:11:50.215Z,7.84
2023-01-12T17:14:23.132Z,7.95
2023-01-12T17:17:02.360Z,7.84
2023-01-12T17:19:34.268Z,7.75
2023-01-12T17:22:02.298Z,7.74
2023-01-12T17:24:32.426Z,7.85
2023-01-12T17:27:07.639Z,7.59
2023-01-12T17:33:18.794Z,7.58
2023-01-12T17:35:59.128Z,7.62
2023-01-12T17:38:43.842Z,7.41
2023-01-12T17:41:55.571Z,7.51
2023-01-12T17:44:32.391Z,7.32
2023-01-12T17:47:05.441Z,7.60
2023-01-12T17:49:40.591Z,7.50
2023-01-12T17:52:07.134Z,7.28
2023-01-12T17:54:33.800Z,7.52
2023-01-12T17:57:00.494Z,7.89
2023-01-12T17:59:42.492Z,7.03
2023-01-12T18:02:13.117Z,7.00
2023-01-12T18:04:39.705Z,7.46
2023-01-12T18:07:06.330Z,7.60
2023-01-12T18:09:33.075Z,7.49
2023-01-12T18:12:00.270Z,7.23
2023-01-12T18:14:26.884Z,7.50
2023-01-12T18:16:53.519Z,7.33
2023-01-12T18:19:20.012Z,7.41
2023-01-12T18:21:46.578Z,7.13
2023-01-12T18:24:13.046Z,7.42
2023-01-12T18:26:40.107Z,7.62
2023-01-12T18:29:07.170Z,7.80
2023-01-12T18:31:37.254Z,7.96
2023-01-12T18:34:05.960Z,7.68
2023-01-12T18:36:35.072Z,7.84
2023-01-12T18:39:03.502Z,7.80
2023-01-12T18:41:48.631Z,8.15
2023-01-12T18:44:15.121Z,7.79
2023-01-12T18:47:02.181Z,8.02
2023-01-12T18:49:31.173Z,7.96
2023-01-12T18:52:16.781Z,7.61
2023-01-12T18:54:47.831Z,8.07
2023-01-12T18:57:20.026Z,7.38
2023-01-12T18:59:47.740Z,7.57
2023-01-12T19:02:16.183Z,7.82
2023-01-12T19:04:52.364Z,7.63
2023-01-12T19:07:29.299Z,8.10
2023-01-12T19:09:57.917Z,8.19
2023-01-12T19:12:24.965Z,8.15
2023-01-12T19:15:10.830Z,7.58
2023-01-12T19:17:41.721Z,7.83
2023-01-12T19:20:14.329Z,7.88
2023-01-12T19:22:59.587Z,7.85
2023-01-12T19:25:45.472Z,8.13
2023-01-12T19:28:32.847Z,8.75
2023-01-12T19:31:01.172Z,7.89
2023-01-12T19:33:28.642Z,7.95
2023-01-12T19:35:55.631Z,7.63
2023-01-12T19:38:22.723Z,8.03
2023-01-12T19:40:53.620Z,8.44
2023-01-12T19:43:28.602Z,8.06
2023-01-12T19:45:59.197Z,8.23
2023-01-12T19:48:26.793Z,8.39
2023-01-12T19:50:54.555Z,7.87
2023-01-12T19:53:26.369Z,7.87
2023-01-12T19:55:53.089Z,7.77
2023-01-12T19:58:22.080Z,8.17
2023-01-12T20:00:55.872Z,8.14
2023-01-12T20:03:23.962Z,7.84
2023-01-12T20:05:51.879Z,8.05
2023-01-12T20:08:20.936Z,8.26
2023-01-12T20:10:54.170Z,7.85
2023-01-12T20:13:20.689Z,7.53
2023-01-12T20:15:48.709Z,7.73
2023-01-12T20:18:15.332Z,7.83
2023-01-12T20:20:41.847Z,8.31
2023-01-12T20:23:08.407Z,7.84
2023-01-12T20:25:34.901Z,7.97
2023-01-12T20:28:01.552Z,8.10
2023-01-12T20:30:43.209Z,7.80
2023-01-12T20:33:10.807Z,8.11
2023-01-12T20:35:38.939Z,7.67
2023-01-12T20:38:06.842Z,7.90
2023-01-12T20:40:38.123Z,8.07
2023-01-12T20:43:07.724Z,8.26
2023-01-12T20:45:37.058Z,8.18
2023-01-12T20:48:06.766Z,8.07
2023-01-12T20:50:36.139Z,8.28
2023-01-12T20:53:08.855Z,7.69
2023-01-12T20:55:51.560Z,7.39
2023-01-12T20:58:19.079Z,7.64
2023-01-12T21:00:46.371Z,7.27
2023-01-12T21:03:13.268Z,7.79
2023-01-12T21:05:47.479Z,7.37
2023-01-12T21:08:15.298Z,7.44
2023-01-12T21:10:48.838Z,7.27
2023-01-12T21:13:15.637Z,7.93
2023-01-12T21:15:42.324Z,7.69
2023-01-12T21:18:08.815Z,7.52
2023-01-12T21:20:35.289Z,7.71
2023-01-12T21:23:01.866Z,7.33
2023-01-12T21:25:31.236Z,7.90
2023-01-12T21:27:57.837Z,7.91
2023-01-12T21:30:24.521Z,7.64
2023-01-12T21:32:52.785Z,7.56
2023-01-12T21:35:19.326Z,7.67
2023-01-12T21:37:45.957Z,8.09
2023-01-12T21:40:14.325Z,7.58
2023-01-12T21:42:59.579Z,7.72
2023-01-12T21:45:26.324Z,7.95
2023-01-12T21:47:55.311Z,7.47
2023-01-12T21:50:23.199Z,7.86
2023-01-12T21:52:49.830Z,8.30
2023-01-12T21:55:16.464Z,7.48
2023-01-12T21:57:43.956Z,7.35
2023-01-12T22:00:12.283Z,7.38
2023-01-12T22:02:38.737Z,7.77
2023-01-12T22:05:05.369Z,7.55
2023-01-12T22:07:31.827Z,7.68
2023-01-12T22:10:18.312Z,7.66
2023-01-12T22:12:49.086Z,7.71
2023-01-12T22:15:15.845Z,7.46
2023-01-12T22:17:42.811Z,7.62
2023-01-12T22:20:10.978Z,7.71
2023-01-12T22:22:41.207Z,7.42
2023-01-12T22:25:09.901Z,7.47
2023-01-12T22:27:36.935Z,7.26
2023-01-12T22:30:05.271Z,7.33
2023-01-12T22:32:32.059Z,7.41
2023-01-12T22:35:01.720Z,7.69
2023-01-12T22:37:28.945Z,7.68
2023-01-12T22:39:55.528Z,7.92
2023-01-12T22:42:41.677Z,7.54
2023-01-12T22:45:09.171Z,7.80
2023-01-12T22:47:47.754Z,7.54
2023-01-12T22:50:15.090Z,7.88
2023-01-12T22:52:41.851Z,7.75
2023-01-12T22:55:09.093Z,7.55
2023-01-12T22:57:35.531Z,7.48
